sensor_id;sensor_type;location;lat;lon;timestamp;temperature;humidity
20171;DHT22;10245;51.344;6.620;2024-01-16T00:00:36;1.00;91.10
20171;DHT22;10245;51.344;6.620;2024-01-16T00:02:59;1.00;90.90
20171;DHT22;10245;51.344;6.620;2024-01-16T00:05:22;1.00;90.90
20171;DHT22;10245;51.344;6.620;2024-01-16T00:07:46;1.00;90.90
20171;DHT22;10245;51.344;6.620;2024-01-16T00:10:11;1.00;91.00
20171;DHT22;10245;51.344;6.620;2024-01-16T00:12:34;1.00;91.00
20171;DHT22;10245;51.344;6.620;2024-01-16T00:14:57;1.00;91.10
20171;DHT22;10245;51.344;6.620;2024-01-16T00:17:20;1.00;91.10
20171;DHT22;10245;51.344;6.620;2024-01-16T00:19:44;1.00;91.20
20171;DHT22;10245;51.344;6.620;2024-01-16T00:22:07;1.00;91.00
20171;DHT22;10245;51.344;6.620;2024-01-16T00:24:30;1.00;91.00
20171;DHT22;10245;51.344;6.620;2024-01-16T00:26:55;1.00;91.00
20171;DHT22;10245;51.344;6.620;2024-01-16T00:29:18;1.00;91.00
20171;DHT22;10245;51.344;6.620;2024-01-16T00:31:42;1.00;91.20
20171;DHT22;10245;51.344;6.620;2024-01-16T00:34:05;1.00;91.00
20171;DHT22;10245;51.344;6.620;2024-01-16T00:36:28;1.00;90.90
20171;DHT22;10245;51.344;6.620;2024-01-16T00:38:52;1.00;90.90
20171;DHT22;10245;51.344;6.620;2024-01-16T00:41:15;1.00;91.00
20171;DHT22;10245;51.344;6.620;2024-01-16T00:43:40;1.00;91.00
20171;DHT22;10245;51.344;6.620;2024-01-16T00:46:04;1.00;90.80
20171;DHT22;10245;51.344;6.620;2024-01-16T00:48:27;1.00;90.80
20171;DHT22;10245;51.344;6.620;2024-01-16T00:50:51;1.00;91.00
20171;DHT22;10245;51.344;6.620;2024-01-16T00:53:16;1.00;91.00
20171;DHT22;10245;51.344;6.620;2024-01-16T00:55:39;1.00;91.00
20171;DHT22;10245;51.344;6.620;2024-01-16T00:58:03;1.00;90.90
20171;DHT22;10245;51.344;6.620;2024-01-16T01:00:28;1.00;91.00
20171;DHT22;10245;51.344;6.620;2024-01-16T01:02:53;1.00;91.10
20171;DHT22;10245;51.344;6.620;2024-01-16T01:05:16;1.00;91.00
20171;DHT22;10245;51.344;6.620;2024-01-16T01:07:39;1.00;91.00
20171;DHT22;10245;51.344;6.620;2024-01-16T01:10:03;1.00;91.00
20171;DHT22;10245;51.344;6.620;2024-01-16T01:12:27;1.00;91.10
20171;DHT22;10245;51.344;6.620;2024-01-16T01:14:50;1.10;91.20
20171;DHT22;10245;51.344;6.620;2024-01-16T01:17:15;1.00;91.10
20171;DHT22;10245;51.344;6.620;2024-01-16T01:19:38;1.10;91.10
20171;DHT22;10245;51.344;6.620;2024-01-16T01:22:03;1.10;91.20
20171;DHT22;10245;51.344;6.620;2024-01-16T01:24:26;1.00;91.10
20171;DHT22;10245;51.344;6.620;2024-01-16T01:26:49;1.00;91.20
20171;DHT22;10245;51.344;6.620;2024-01-16T01:29:13;1.00;91.30
20171;DHT22;10245;51.344;6.620;2024-01-16T01:31:36;1.10;91.40
20171;DHT22;10245;51.344;6.620;2024-01-16T01:34:01;1.10;91.40
20171;DHT22;10245;51.344;6.620;2024-01-16T01:36:24;1.10;91.20
20171;DHT22;10245;51.344;6.620;2024-01-16T01:38:47;1.10;91.30
20171;DHT22;10245;51.344;6.620;2024-01-16T01:41:11;1.00;91.30
20171;DHT22;10245;51.344;6.620;2024-01-16T01:43:34;1.00;91.30
20171;DHT22;10245;51.344;6.620;2024-01-16T01:46:09;1.00;91.50
20171;DHT22;10245;51.344;6.620;2024-01-16T01:48:33;1.10;91.70
20171;DHT22;10245;51.344;6.620;2024-01-16T01:50:58;1.10;91.40
20171;DHT22;10245;51.344;6.620;2024-01-16T01:53:22;1.10;91.40
20171;DHT22;10245;51.344;6.620;2024-01-16T01:55:46;1.10;91.40
20171;DHT22;10245;51.344;6.620;2024-01-16T01:58:09;1.00;91.30
20171;DHT22;10245;51.344;6.620;2024-01-16T02:00:33;1.10;91.70
20171;DHT22;10245;51.344;6.620;2024-01-16T02:02:57;1.10;91.40
20171;DHT22;10245;51.344;6.620;2024-01-16T02:05:21;1.10;91.40
20171;DHT22;10245;51.344;6.620;2024-01-16T02:07:47;1.00;91.40
20171;DHT22;10245;51.344;6.620;2024-01-16T02:10:10;1.00;91.50
20171;DHT22;10245;51.344;6.620;2024-01-16T02:12:33;1.10;91.50
20171;DHT22;10245;51.344;6.620;2024-01-16T02:14:56;1.00;91.40
20171;DHT22;10245;51.344;6.620;2024-01-16T02:17:20;1.10;91.60
20171;DHT22;10245;51.344;6.620;2024-01-16T02:19:44;1.10;91.60
20171;DHT22;10245;51.344;6.620;2024-01-16T02:22:09;1.10;91.60
20171;DHT22;10245;51.344;6.620;2024-01-16T02:24:39;1.10;91.40
20171;DHT22;10245;51.344;6.620;2024-01-16T02:27:03;1.10;91.50
20171;DHT22;10245;51.344;6.620;2024-01-16T02:29:27;1.10;91.50
20171;DHT22;10245;51.344;6.620;2024-01-16T02:31:50;1.00;91.60
20171;DHT22;10245;51.344;6.620;2024-01-16T02:34:13;1.00;91.60
20171;DHT22;10245;51.344;6.620;2024-01-16T02:36:37;1.10;91.70
20171;DHT22;10245;51.344;6.620;2024-01-16T02:39:01;1.00;91.70
20171;DHT22;10245;51.344;6.620;2024-01-16T02:41:25;1.20;91.90
20171;DHT22;10245;51.344;6.620;2024-01-16T02:43:49;1.20;92.00
20171;DHT22;10245;51.344;6.620;2024-01-16T02:46:12;1.10;91.60
20171;DHT22;10245;51.344;6.620;2024-01-16T02:48:35;1.00;91.70
20171;DHT22;10245;51.344;6.620;2024-01-16T02:50:59;1.00;91.80
20171;DHT22;10245;51.344;6.620;2024-01-16T02:53:22;1.00;92.00
20171;DHT22;10245;51.344;6.620;2024-01-16T02:55:48;1.00;92.00
20171;DHT22;10245;51.344;6.620;2024-01-16T02:58:12;1.00;92.10
20171;DHT22;10245;51.344;6.620;2024-01-16T03:00:36;1.00;92.00
20171;DHT22;10245;51.344;6.620;2024-01-16T03:02:59;1.00;92.00
20171;DHT22;10245;51.344;6.620;2024-01-16T03:05:23;1.00;91.90
20171;DHT22;10245;51.344;6.620;2024-01-16T03:07:46;1.00;92.00
20171;DHT22;10245;51.344;6.620;2024-01-16T03:10:10;1.00;92.00
20171;DHT22;10245;51.344;6.620;2024-01-16T03:12:34;1.00;91.80
20171;DHT22;10245;51.344;6.620;2024-01-16T03:14:58;1.00;91.90
20171;DHT22;10245;51.344;6.620;2024-01-16T03:17:21;1.00;91.90
20171;DHT22;10245;51.344;6.620;2024-01-16T03:19:45;1.00;91.90
20171;DHT22;10245;51.344;6.620;2024-01-16T03:22:08;1.00;92.00
20171;DHT22;10245;51.344;6.620;2024-01-16T03:24:32;1.10;91.90
20171;DHT22;10245;51.344;6.620;2024-01-16T03:26:55;1.00;91.90
20171;DHT22;10245;51.344;6.620;2024-01-16T03:29:19;1.10;92.00
20171;DHT22;10245;51.344;6.620;2024-01-16T03:31:43;1.00;91.70
20171;DHT22;10245;51.344;6.620;2024-01-16T03:34:07;1.10;91.90
20171;DHT22;10245;51.344;6.620;2024-01-16T03:36:32;1.10;91.80
20171;DHT22;10245;51.344;6.620;2024-01-16T03:38:56;1.10;91.60
20171;DHT22;10245;51.344;6.620;2024-01-16T03:41:19;1.10;91.70
20171;DHT22;10245;51.344;6.620;2024-01-16T03:43:43;1.10;91.60
20171;DHT22;10245;51.344;6.620;2024-01-16T03:46:06;1.20;91.80
20171;DHT22;10245;51.344;6.620;2024-01-16T03:48:31;1.00;91.50
20171;DHT22;10245;51.344;6.620;2024-01-16T03:50:54;1.00;91.30
20171;DHT22;10245;51.344;6.620;2024-01-16T03:53:17;1.00;91.40
20171;DHT22;10245;51.344;6.620;2024-01-16T03:55:40;1.00;91.40
20171;DHT22;10245;51.344;6.620;2024-01-16T03:58:04;1.00;91.50
20171;DHT22;10245;51.344;6.620;2024-01-16T04:00:27;1.00;91.60
20171;DHT22;10245;51.344;6.620;2024-01-16T04:02:50;1.00;91.40
20171;DHT22;10245;51.344;6.620;2024-01-16T04:05:16;1.00;91.30
20171;DHT22;10245;51.344;6.620;2024-01-16T04:07:39;1.00;91.30
20171;DHT22;10245;51.344;6.620;2024-01-16T04:10:03;1.00;91.40
20171;DHT22;10245;51.344;6.620;2024-01-16T04:12:27;1.00;91.30
20171;DHT22;10245;51.344;6.620;2024-01-16T04:14:51;1.00;91.30
20171;DHT22;10245;51.344;6.620;2024-01-16T04:17:14;1.10;91.40
20171;DHT22;10245;51.344;6.620;2024-01-16T04:19:38;1.00;91.10
20171;DHT22;10245;51.344;6.620;2024-01-16T04:22:03;1.10;91.60
20171;DHT22;10245;51.344;6.620;2024-01-16T04:24:27;1.10;91.10
20171;DHT22;10245;51.344;6.620;2024-01-16T04:26:50;1.10;91.30
20171;DHT22;10245;51.344;6.620;2024-01-16T04:29:13;1.00;91.30
20171;DHT22;10245;51.344;6.620;2024-01-16T04:31:39;1.10;91.40
20171;DHT22;10245;51.344;6.620;2024-01-16T04:34:03;1.10;91.30
20171;DHT22;10245;51.344;6.620;2024-01-16T04:36:28;1.00;91.30
20171;DHT22;10245;51.344;6.620;2024-01-16T04:38:53;1.00;91.50
20171;DHT22;10245;51.344;6.620;2024-01-16T04:41:20;1.10;91.50
20171;DHT22;10245;51.344;6.620;2024-01-16T04:43:43;1.00;91.50
20171;DHT22;10245;51.344;6.620;2024-01-16T04:46:07;1.00;91.60
20171;DHT22;10245;51.344;6.620;2024-01-16T04:48:30;1.00;91.60
20171;DHT22;10245;51.344;6.620;2024-01-16T04:50:56;1.00;91.70
20171;DHT22;10245;51.344;6.620;2024-01-16T04:53:20;1.00;91.60
20171;DHT22;10245;51.344;6.620;2024-01-16T04:55:44;1.00;91.70
20171;DHT22;10245;51.344;6.620;2024-01-16T04:58:08;1.00;91.60
20171;DHT22;10245;51.344;6.620;2024-01-16T05:00:32;1.00;91.70
20171;DHT22;10245;51.344;6.620;2024-01-16T05:02:55;1.00;91.80
20171;DHT22;10245;51.344;6.620;2024-01-16T05:05:19;1.00;91.80
20171;DHT22;10245;51.344;6.620;2024-01-16T05:07:43;1.00;91.80
20171;DHT22;10245;51.344;6.620;2024-01-16T05:10:09;1.00;91.60
20171;DHT22;10245;51.344;6.620;2024-01-16T05:12:35;1.00;91.60
20171;DHT22;10245;51.344;6.620;2024-01-16T05:14:59;0.90;91.60
20171;DHT22;10245;51.344;6.620;2024-01-16T05:17:24;1.00;91.50
20171;DHT22;10245;51.344;6.620;2024-01-16T05:19:47;0.90;91.60
20171;DHT22;10245;51.344;6.620;2024-01-16T05:22:11;0.90;91.60
20171;DHT22;10245;51.344;6.620;2024-01-16T05:24:34;1.00;91.60
20171;DHT22;10245;51.344;6.620;2024-01-16T05:26:58;0.90;91.60
20171;DHT22;10245;51.344;6.620;2024-01-16T05:29:23;0.80;91.50
20171;DHT22;10245;51.344;6.620;2024-01-16T05:31:46;0.80;91.50
20171;DHT22;10245;51.344;6.620;2024-01-16T05:34:10;0.70;91.50
20171;DHT22;10245;51.344;6.620;2024-01-16T05:36:34;0.70;91.40
20171;DHT22;10245;51.344;6.620;2024-01-16T05:38:57;0.70;91.30
20171;DHT22;10245;51.344;6.620;2024-01-16T05:41:20;0.70;91.30
20171;DHT22;10245;51.344;6.620;2024-01-16T05:43:44;0.70;91.30
20171;DHT22;10245;51.344;6.620;2024-01-16T05:46:08;0.60;91.50
20171;DHT22;10245;51.344;6.620;2024-01-16T05:48:32;0.60;91.50
20171;DHT22;10245;51.344;6.620;2024-01-16T05:50:57;0.60;91.40
20171;DHT22;10245;51.344;6.620;2024-01-16T05:53:20;0.50;91.30
20171;DHT22;10245;51.344;6.620;2024-01-16T05:55:44;0.50;91.30
20171;DHT22;10245;51.344;6.620;2024-01-16T05:58:07;0.50;91.40
20171;DHT22;10245;51.344;6.620;2024-01-16T06:00:35;0.50;91.30
20171;DHT22;10245;51.344;6.620;2024-01-16T06:03:01;0.50;91.50
20171;DHT22;10245;51.344;6.620;2024-01-16T06:05:25;0.40;91.30
20171;DHT22;10245;51.344;6.620;2024-01-16T06:07:48;0.50;91.50
20171;DHT22;10245;51.344;6.620;2024-01-16T06:10:12;0.50;91.30
20171;DHT22;10245;51.344;6.620;2024-01-16T06:12:35;0.40;91.20
20171;DHT22;10245;51.344;6.620;2024-01-16T06:14:59;0.30;91.10
20171;DHT22;10245;51.344;6.620;2024-01-16T06:17:22;0.30;91.10
20171;DHT22;10245;51.344;6.620;2024-01-16T06:19:47;0.20;91.00
20171;DHT22;10245;51.344;6.620;2024-01-16T06:22:10;0.30;91.00
20171;DHT22;10245;51.344;6.620;2024-01-16T06:24:33;0.20;90.90
20171;DHT22;10245;51.344;6.620;2024-01-16T06:26:59;0.20;90.80
20171;DHT22;10245;51.344;6.620;2024-01-16T06:29:22;0.20;90.70
20171;DHT22;10245;51.344;6.620;2024-01-16T06:31:56;0.20;90.50
20171;DHT22;10245;51.344;6.620;2024-01-16T06:34:19;0.10;90.50
20171;DHT22;10245;51.344;6.620;2024-01-16T06:36:44;0.20;90.70
20171;DHT22;10245;51.344;6.620;2024-01-16T06:39:07;0.20;90.70
20171;DHT22;10245;51.344;6.620;2024-01-16T06:41:30;0.10;90.50
20171;DHT22;10245;51.344;6.620;2024-01-16T06:43:54;0.10;90.60
20171;DHT22;10245;51.344;6.620;2024-01-16T06:46:17;0.00;90.60
20171;DHT22;10245;51.344;6.620;2024-01-16T06:48:40;0.00;90.60
20171;DHT22;10245;51.344;6.620;2024-01-16T06:51:04;0.00;90.50
20171;DHT22;10245;51.344;6.620;2024-01-16T06:53:31;0.00;90.40
20171;DHT22;10245;51.344;6.620;2024-01-16T06:55:54;0.00;90.30
20171;DHT22;10245;51.344;6.620;2024-01-16T06:58:18;0.00;90.00
20171;DHT22;10245;51.344;6.620;2024-01-16T07:00:41;0.00;90.00
20171;DHT22;10245;51.344;6.620;2024-01-16T07:03:05;0.00;89.90
20171;DHT22;10245;51.344;6.620;2024-01-16T07:05:28;0.00;89.70
20171;DHT22;10245;51.344;6.620;2024-01-16T07:07:52;0.00;89.90
20171;DHT22;10245;51.344;6.620;2024-01-16T07:10:17;0.00;89.70
20171;DHT22;10245;51.344;6.620;2024-01-16T07:12:41;0.00;89.50
20171;DHT22;10245;51.344;6.620;2024-01-16T07:15:05;0.00;89.50
20171;DHT22;10245;51.344;6.620;2024-01-16T07:17:29;0.00;89.10
20171;DHT22;10245;51.344;6.620;2024-01-16T07:19:53;0.00;88.90
20171;DHT22;10245;51.344;6.620;2024-01-16T07:22:16;0.00;88.60
20171;DHT22;10245;51.344;6.620;2024-01-16T07:24:39;0.00;88.50
20171;DHT22;10245;51.344;6.620;2024-01-16T07:27:04;0.00;88.50
20171;DHT22;10245;51.344;6.620;2024-01-16T07:29:27;0.00;88.00
20171;DHT22;10245;51.344;6.620;2024-01-16T07:31:51;0.00;88.00
20171;DHT22;10245;51.344;6.620;2024-01-16T07:34:15;0.00;87.80
20171;DHT22;10245;51.344;6.620;2024-01-16T07:36:42;0.00;87.60
20171;DHT22;10245;51.344;6.620;2024-01-16T07:39:05;0.00;87.30
20171;DHT22;10245;51.344;6.620;2024-01-16T07:41:28;0.00;86.90
20171;DHT22;10245;51.344;6.620;2024-01-16T07:43:53;0.00;86.90
20171;DHT22;10245;51.344;6.620;2024-01-16T07:46:16;0.00;86.60
20171;DHT22;10245;51.344;6.620;2024-01-16T07:48:39;0.00;86.80
20171;DHT22;10245;51.344;6.620;2024-01-16T07:51:03;0.00;86.70
20171;DHT22;10245;51.344;6.620;2024-01-16T07:58:50;0.00;85.80
20171;DHT22;10245;51.344;6.620;2024-01-16T08:01:15;0.00;85.80
20171;DHT22;10245;51.344;6.620;2024-01-16T08:03:38;0.00;85.60
20171;DHT22;10245;51.344;6.620;2024-01-16T08:06:02;0.00;85.60
20171;DHT22;10245;51.344;6.620;2024-01-16T08:08:26;0.00;85.70
20171;DHT22;10245;51.344;6.620;2024-01-16T08:10:50;0.00;85.20
20171;DHT22;10245;51.344;6.620;2024-01-16T08:13:13;0.00;85.30
20171;DHT22;10245;51.344;6.620;2024-01-16T08:15:37;0.00;85.40
20171;DHT22;10245;51.344;6.620;2024-01-16T08:18:01;0.00;85.30
20171;DHT22;10245;51.344;6.620;2024-01-16T08:20:25;0.00;84.90
20171;DHT22;10245;51.344;6.620;2024-01-16T08:22:49;0.00;84.90
20171;DHT22;10245;51.344;6.620;2024-01-16T08:25:12;0.00;84.80
20171;DHT22;10245;51.344;6.620;2024-01-16T08:27:36;0.00;84.40
20171;DHT22;10245;51.344;6.620;2024-01-16T08:29:59;0.00;84.30
20171;DHT22;10245;51.344;6.620;2024-01-16T08:32:23;0.00;84.10
20171;DHT22;10245;51.344;6.620;2024-01-16T08:34:48;0.10;84.40
20171;DHT22;10245;51.344;6.620;2024-01-16T08:37:11;0.00;84.10
20171;DHT22;10245;51.344;6.620;2024-01-16T08:39:35;0.10;84.10
20171;DHT22;10245;51.344;6.620;2024-01-16T08:41:58;0.10;83.70
20171;DHT22;10245;51.344;6.620;2024-01-16T08:44:24;0.10;83.80
20171;DHT22;10245;51.344;6.620;2024-01-16T08:46:47;0.10;83.70
20171;DHT22;10245;51.344;6.620;2024-01-16T08:49:10;0.10;83.40
20171;DHT22;10245;51.344;6.620;2024-01-16T08:51:42;0.00;83.40
20171;DHT22;10245;51.344;6.620;2024-01-16T08:54:05;0.10;83.00
20171;DHT22;10245;51.344;6.620;2024-01-16T08:56:28;0.00;82.50
20171;DHT22;10245;51.344;6.620;2024-01-16T08:58:51;0.10;82.90
20171;DHT22;10245;51.344;6.620;2024-01-16T09:01:15;0.10;82.60
20171;DHT22;10245;51.344;6.620;2024-01-16T09:03:38;0.10;82.80
20171;DHT22;10245;51.344;6.620;2024-01-16T09:06:02;0.10;82.30
20171;DHT22;10245;51.344;6.620;2024-01-16T09:08:27;0.10;82.20
20171;DHT22;10245;51.344;6.620;2024-01-16T09:10:50;0.10;82.40
20171;DHT22;10245;51.344;6.620;2024-01-16T09:13:13;0.20;82.30
20171;DHT22;10245;51.344;6.620;2024-01-16T09:15:37;0.20;82.00
20171;DHT22;10245;51.344;6.620;2024-01-16T09:18:01;0.20;81.80
20171;DHT22;10245;51.344;6.620;2024-01-16T09:20:25;0.20;82.00
20171;DHT22;10245;51.344;6.620;2024-01-16T09:22:48;0.20;82.00
20171;DHT22;10245;51.344;6.620;2024-01-16T09:25:13;0.30;81.60
20171;DHT22;10245;51.344;6.620;2024-01-16T09:27:36;0.30;81.60
20171;DHT22;10245;51.344;6.620;2024-01-16T09:30:00;0.30;81.60
20171;DHT22;10245;51.344;6.620;2024-01-16T09:32:23;0.30;81.90
20171;DHT22;10245;51.344;6.620;2024-01-16T09:34:47;0.50;82.40
20171;DHT22;10245;51.344;6.620;2024-01-16T09:37:11;0.40;81.20
20171;DHT22;10245;51.344;6.620;2024-01-16T09:39:36;0.40;81.10
20171;DHT22;10245;51.344;6.620;2024-01-16T09:42:01;0.40;81.30
20171;DHT22;10245;51.344;6.620;2024-01-16T09:44:25;0.40;81.30
20171;DHT22;10245;51.344;6.620;2024-01-16T09:46:50;0.40;81.00
20171;DHT22;10245;51.344;6.620;2024-01-16T09:49:15;0.30;80.70
20171;DHT22;10245;51.344;6.620;2024-01-16T09:51:41;0.40;81.00
20171;DHT22;10245;51.344;6.620;2024-01-16T09:54:05;0.40;81.00
20171;DHT22;10245;51.344;6.620;2024-01-16T09:56:31;0.40;80.70
20171;DHT22;10245;51.344;6.620;2024-01-16T09:58:58;0.40;80.70
20171;DHT22;10245;51.344;6.620;2024-01-16T10:01:27;0.40;80.40
20171;DHT22;10245;51.344;6.620;2024-01-16T10:03:51;0.50;80.70
20171;DHT22;10245;51.344;6.620;2024-01-16T10:06:15;0.50;80.00
20171;DHT22;10245;51.344;6.620;2024-01-16T10:08:40;0.50;80.60
20171;DHT22;10245;51.344;6.620;2024-01-16T10:11:04;0.70;81.00
20171;DHT22;10245;51.344;6.620;2024-01-16T10:13:27;0.60;79.90
20171;DHT22;10245;51.344;6.620;2024-01-16T10:15:53;0.70;79.70
20171;DHT22;10245;51.344;6.620;2024-01-16T10:18:23;0.70;79.90
20171;DHT22;10245;51.344;6.620;2024-01-16T10:20:47;0.80;80.60
20171;DHT22;10245;51.344;6.620;2024-01-16T10:23:10;1.00;80.60
20171;DHT22;10245;51.344;6.620;2024-01-16T10:25:34;0.70;79.40
20171;DHT22;10245;51.344;6.620;2024-01-16T10:28:06;0.80;79.90
20171;DHT22;10245;51.344;6.620;2024-01-16T10:30:34;0.80;79.60
20171;DHT22;10245;51.344;6.620;2024-01-16T10:33:12;0.80;79.50
20171;DHT22;10245;51.344;6.620;2024-01-16T10:35:38;1.00;79.90
20171;DHT22;10245;51.344;6.620;2024-01-16T10:38:02;1.10;79.00
20171;DHT22;10245;51.344;6.620;2024-01-16T10:40:25;1.30;79.60
20171;DHT22;10245;51.344;6.620;2024-01-16T10:42:57;1.30;79.20
20171;DHT22;10245;51.344;6.620;2024-01-16T10:45:22;1.20;78.30
20171;DHT22;10245;51.344;6.620;2024-01-16T10:47:46;0.90;78.60
20171;DHT22;10245;51.344;6.620;2024-01-16T10:50:11;0.90;79.40
20171;DHT22;10245;51.344;6.620;2024-01-16T10:52:35;0.90;78.90
20171;DHT22;10245;51.344;6.620;2024-01-16T10:55:09;1.00;79.20
20171;DHT22;10245;51.344;6.620;2024-01-16T10:57:33;1.00;79.40
20171;DHT22;10245;51.344;6.620;2024-01-16T11:00:02;1.00;79.70
20171;DHT22;10245;51.344;6.620;2024-01-16T11:02:35;1.00;79.30
20171;DHT22;10245;51.344;6.620;2024-01-16T11:05:04;1.00;78.50
20171;DHT22;10245;51.344;6.620;2024-01-16T11:07:29;1.10;78.60
20171;DHT22;10245;51.344;6.620;2024-01-16T11:09:54;1.00;78.50
20171;DHT22;10245;51.344;6.620;2024-01-16T11:12:17;1.00;78.60
20171;DHT22;10245;51.344;6.620;2024-01-16T11:14:45;1.10;79.30
20171;DHT22;10245;51.344;6.620;2024-01-16T11:17:14;1.10;78.10
20171;DHT22;10245;51.344;6.620;2024-01-16T11:19:40;1.30;78.10
20171;DHT22;10245;51.344;6.620;2024-01-16T11:22:24;1.00;78.00
20171;DHT22;10245;51.344;6.620;2024-01-16T11:25:07;1.20;78.10
20171;DHT22;10245;51.344;6.620;2024-01-16T11:27:31;1.20;77.90
20171;DHT22;10245;51.344;6.620;2024-01-16T11:29:55;1.30;77.20
20171;DHT22;10245;51.344;6.620;2024-01-16T11:32:33;1.10;76.60
20171;DHT22;10245;51.344;6.620;2024-01-16T11:35:00;1.10;77.20
20171;DHT22;10245;51.344;6.620;2024-01-16T11:37:28;1.10;76.80
20171;DHT22;10245;51.344;6.620;2024-01-16T11:40:25;1.20;76.90
20171;DHT22;10245;51.344;6.620;2024-01-16T11:42:51;1.30;76.20
20171;DHT22;10245;51.344;6.620;2024-01-16T11:45:49;1.30;76.80
20171;DHT22;10245;51.344;6.620;2024-01-16T11:48:16;1.50;76.10
20171;DHT22;10245;51.344;6.620;2024-01-16T11:50:41;1.50;76.10
20171;DHT22;10245;51.344;6.620;2024-01-16T11:53:05;1.70;76.10
20171;DHT22;10245;51.344;6.620;2024-01-16T11:55:31;1.50;75.80
20171;DHT22;10245;51.344;6.620;2024-01-16T11:58:26;1.50;74.70
20171;DHT22;10245;51.344;6.620;2024-01-16T12:01:00;1.70;75.00
20171;DHT22;10245;51.344;6.620;2024-01-16T12:03:25;1.60;75.30
20171;DHT22;10245;51.344;6.620;2024-01-16T12:05:56;1.60;73.70
20171;DHT22;10245;51.344;6.620;2024-01-16T12:08:21;1.50;74.60
20171;DHT22;10245;51.344;6.620;2024-01-16T12:10:47;1.60;74.20
20171;DHT22;10245;51.344;6.620;2024-01-16T12:13:12;1.80;74.20
20171;DHT22;10245;51.344;6.620;2024-01-16T12:15:35;1.60;73.40
20171;DHT22;10245;51.344;6.620;2024-01-16T12:18:01;1.60;73.30
20171;DHT22;10245;51.344;6.620;2024-01-16T12:20:27;1.80;74.30
20171;DHT22;10245;51.344;6.620;2024-01-16T12:22:53;1.80;73.10
20171;DHT22;10245;51.344;6.620;2024-01-16T12:25:19;1.80;74.00
20171;DHT22;10245;51.344;6.620;2024-01-16T12:27:44;1.90;73.50
20171;DHT22;10245;51.344;6.620;2024-01-16T12:30:09;1.70;73.20
20171;DHT22;10245;51.344;6.620;2024-01-16T12:32:34;1.90;73.10
20171;DHT22;10245;51.344;6.620;2024-01-16T12:34:58;1.80;73.00
20171;DHT22;10245;51.344;6.620;2024-01-16T12:37:21;1.80;72.90
20171;DHT22;10245;51.344;6.620;2024-01-16T12:39:44;2.00;73.50
20171;DHT22;10245;51.344;6.620;2024-01-16T12:42:08;1.90;72.60
20171;DHT22;10245;51.344;6.620;2024-01-16T12:44:35;1.50;72.20
20171;DHT22;10245;51.344;6.620;2024-01-16T12:46:59;1.50;73.40
20171;DHT22;10245;51.344;6.620;2024-01-16T12:49:24;1.30;73.50
20171;DHT22;10245;51.344;6.620;2024-01-16T12:51:48;1.40;73.80
20171;DHT22;10245;51.344;6.620;2024-01-16T12:54:12;1.30;73.40
20171;DHT22;10245;51.344;6.620;2024-01-16T12:56:37;1.40;74.00
20171;DHT22;10245;51.344;6.620;2024-01-16T12:59:08;1.40;73.70
20171;DHT22;10245;51.344;6.620;2024-01-16T13:01:34;1.40;73.40
20171;DHT22;10245;51.344;6.620;2024-01-16T13:04:03;1.50;72.90
20171;DHT22;10245;51.344;6.620;2024-01-16T13:06:27;1.60;72.50
20171;DHT22;10245;51.344;6.620;2024-01-16T13:08:50;1.80;73.10
20171;DHT22;10245;51.344;6.620;2024-01-16T13:11:14;2.00;73.20
20171;DHT22;10245;51.344;6.620;2024-01-16T13:14:01;2.00;71.90
20171;DHT22;10245;51.344;6.620;2024-01-16T13:16:26;1.90;71.20
20171;DHT22;10245;51.344;6.620;2024-01-16T13:19:01;1.90;71.80
20171;DHT22;10245;51.344;6.620;2024-01-16T13:21:27;2.00;71.80
20171;DHT22;10245;51.344;6.620;2024-01-16T13:23:50;2.00;71.30
20171;DHT22;10245;51.344;6.620;2024-01-16T13:26:13;1.90;71.90
20171;DHT22;10245;51.344;6.620;2024-01-16T13:28:37;2.00;71.60
20171;DHT22;10245;51.344;6.620;2024-01-16T13:31:01;1.90;71.20
20171;DHT22;10245;51.344;6.620;2024-01-16T13:33:26;1.80;71.20
20171;DHT22;10245;51.344;6.620;2024-01-16T13:35:51;1.70;71.40
20171;DHT22;10245;51.344;6.620;2024-01-16T13:38:16;1.80;71.80
20171;DHT22;10245;51.344;6.620;2024-01-16T13:40:41;1.80;71.40
20171;DHT22;10245;51.344;6.620;2024-01-16T13:43:05;1.90;71.80
20171;DHT22;10245;51.344;6.620;2024-01-16T13:45:29;2.00;72.20
20171;DHT22;10245;51.344;6.620;2024-01-16T13:47:53;1.90;71.00
20171;DHT22;10245;51.344;6.620;2024-01-16T13:50:17;1.70;72.20
20171;DHT22;10245;51.344;6.620;2024-01-16T13:52:41;1.70;71.40
20171;DHT22;10245;51.344;6.620;2024-01-16T13:55:05;1.80;71.40
20171;DHT22;10245;51.344;6.620;2024-01-16T13:57:30;1.70;71.30
20171;DHT22;10245;51.344;6.620;2024-01-16T13:59:54;1.60;70.70
20171;DHT22;10245;51.344;6.620;2024-01-16T14:02:18;1.60;71.50
20171;DHT22;10245;51.344;6.620;2024-01-16T14:04:41;1.90;71.60
20171;DHT22;10245;51.344;6.620;2024-01-16T14:07:04;1.60;71.10
20171;DHT22;10245;51.344;6.620;2024-01-16T14:09:37;1.70;71.40
20171;DHT22;10245;51.344;6.620;2024-01-16T14:12:00;1.80;71.70
20171;DHT22;10245;51.344;6.620;2024-01-16T14:14:24;1.70;71.60
20171;DHT22;10245;51.344;6.620;2024-01-16T14:16:48;1.80;72.10
20171;DHT22;10245;51.344;6.620;2024-01-16T14:19:21;1.70;71.50
20171;DHT22;10245;51.344;6.620;2024-01-16T14:21:46;1.50;71.10
20171;DHT22;10245;51.344;6.620;2024-01-16T14:24:09;1.50;71.70
20171;DHT22;10245;51.344;6.620;2024-01-16T14:26:35;1.50;71.90
20171;DHT22;10245;51.344;6.620;2024-01-16T14:28:58;1.70;71.60
20171;DHT22;10245;51.344;6.620;2024-01-16T14:31:21;1.60;71.60
20171;DHT22;10245;51.344;6.620;2024-01-16T14:33:45;1.70;71.60
20171;DHT22;10245;51.344;6.620;2024-01-16T14:36:08;1.50;71.40
20171;DHT22;10245;51.344;6.620;2024-01-16T14:38:31;1.50;71.40
20171;DHT22;10245;51.344;6.620;2024-01-16T14:40:55;1.50;71.80
20171;DHT22;10245;51.344;6.620;2024-01-16T14:43:20;1.50;71.40
20171;DHT22;10245;51.344;6.620;2024-01-16T14:45:43;1.50;71.70
20171;DHT22;10245;51.344;6.620;2024-01-16T14:48:07;1.50;71.60
20171;DHT22;10245;51.344;6.620;2024-01-16T14:50:32;1.50;72.30
20171;DHT22;10245;51.344;6.620;2024-01-16T14:52:56;1.50;72.40
20171;DHT22;10245;51.344;6.620;2024-01-16T14:55:19;1.40;72.10
20171;DHT22;10245;51.344;6.620;2024-01-16T14:57:44;1.40;72.60
20171;DHT22;10245;51.344;6.620;2024-01-16T15:00:12;1.30;71.90
20171;DHT22;10245;51.344;6.620;2024-01-16T15:02:41;1.40;72.60
20171;DHT22;10245;51.344;6.620;2024-01-16T15:05:06;1.40;72.70
20171;DHT22;10245;51.344;6.620;2024-01-16T15:07:29;1.40;72.60
20171;DHT22;10245;51.344;6.620;2024-01-16T15:09:53;1.30;72.50
20171;DHT22;10245;51.344;6.620;2024-01-16T15:12:17;1.30;72.20
20171;DHT22;10245;51.344;6.620;2024-01-16T15:14:42;1.20;72.60
20171;DHT22;10245;51.344;6.620;2024-01-16T15:17:07;1.20;72.60
20171;DHT22;10245;51.344;6.620;2024-01-16T15:19:31;1.30;72.70
20171;DHT22;10245;51.344;6.620;2024-01-16T15:21:55;1.30;73.60
20171;DHT22;10245;51.344;6.620;2024-01-16T15:24:19;1.20;73.60
20171;DHT22;10245;51.344;6.620;2024-01-16T15:26:48;1.20;72.80
20171;DHT22;10245;51.344;6.620;2024-01-16T15:29:11;1.10;71.90
20171;DHT22;10245;51.344;6.620;2024-01-16T15:31:35;1.00;72.60
20171;DHT22;10245;51.344;6.620;2024-01-16T15:34:00;1.00;72.90